TimeEDT,TemperatureF,Dew PointF,Humidity,Sea Level PressureIn,VisibilityMPH,Wind Direction,Wind SpeedMPH,Gust SpeedMPH,PrecipitationIn,Events,Conditions,WindDirDegrees,DateUTC
12:15 AM,44.6,41.0,87,30.07,-9999.0,NE,3.5,-,N/A,,Unknown,50,2013-09-23 04:15:00
12:35 AM,44.6,41.0,87,30.08,-9999.0,NE,3.5,-,N/A,,Unknown,50,2013-09-23 04:35:00
12:55 AM,44.6,39.2,81,30.08,-9999.0,NE,3.5,-,N/A,,Clear,50,2013-09-23 04:55:00
1:15 AM,42.8,39.2,87,30.08,-9999.0,NE,3.5,-,N/A,,Unknown,50,2013-09-23 05:15:00
1:35 AM,42.8,39.2,87,30.09,-9999.0,NE,3.5,-,N/A,,Unknown,50,2013-09-23 05:35:00
1:55 AM,42.8,39.2,87,30.09,-9999.0,Calm,Calm,-,N/A,,Unknown,0,2013-09-23 05:55:00
2:15 AM,42.8,39.2,87,30.10,-9999.0,Calm,Calm,-,N/A,,Unknown,0,2013-09-23 06:15:00
2:35 AM,42.8,39.2,87,30.10,-9999.0,Calm,Calm,-,N/A,,Unknown,0,2013-09-23 06:35:00
2:55 AM,42.8,39.2,87,30.09,-9999.0,Calm,Calm,-,N/A,,Unknown,0,2013-09-23 06:55:00
3:15 AM,42.8,37.4,81,30.09,-9999.0,Calm,Calm,-,N/A,,Unknown,0,2013-09-23 07:15:00
3:35 AM,42.8,39.2,87,30.09,-9999.0,Calm,Calm,-,N/A,,Unknown,0,2013-09-23 07:35:00
3:55 AM,42.8,39.2,87,30.09,-9999.0,Calm,Calm,-,N/A,,Unknown,0,2013-09-23 07:55:00
4:15 AM,42.8,37.4,81,30.09,-9999.0,Calm,Calm,-,N/A,,Unknown,0,2013-09-23 08:15:00
4:35 AM,41.0,37.4,87,30.09,-9999.0,Calm,Calm,-,N/A,,Unknown,0,2013-09-23 08:35:00
4:55 AM,42.8,37.4,81,30.09,-9999.0,Calm,Calm,-,N/A,,Unknown,0,2013-09-23 08:55:00
5:15 AM,41.0,37.4,87,30.09,-9999.0,ENE,3.5,-,N/A,,Unknown,60,2013-09-23 09:15:00
5:35 AM,41.0,37.4,87,30.10,-9999.0,ENE,3.5,-,N/A,,Unknown,70,2013-09-23 09:35:00
5:55 AM,41.0,37.4,87,30.09,-9999.0,ENE,3.5,-,N/A,,Unknown,70,2013-09-23 09:55:00
6:15 AM,41.0,37.4,87,30.10,-9999.0,Calm,Calm,-,N/A,,Unknown,0,2013-09-23 10:15:00
6:35 AM,41.0,37.4,87,30.10,-9999.0,Calm,Calm,-,N/A,,Unknown,0,2013-09-23 10:35:00
6:55 AM,41.0,37.4,87,30.12,-9999.0,ENE,3.5,-,N/A,,Unknown,70,2013-09-23 10:55:00
7:15 AM,41.0,37.4,87,30.13,-9999.0,ENE,3.5,-,N/A,,Unknown,70,2013-09-23 11:15:00
7:35 AM,41.0,37.4,87,30.13,-9999.0,Calm,Calm,-,N/A,,Unknown,0,2013-09-23 11:35:00
7:55 AM,41.0,37.4,87,30.15,-9999.0,Calm,Calm,-,N/A,,Unknown,0,2013-09-23 11:55:00
8:15 AM,42.8,41.0,93,30.15,-9999.0,Calm,Calm,-,N/A,,Unknown,0,2013-09-23 12:15:00
8:35 AM,44.6,41.0,87,30.16,-9999.0,ENE,3.5,-,N/A,,Unknown,70,2013-09-23 12:35:00
8:55 AM,46.4,42.8,87,30.16,-9999.0,ENE,5.8,-,N/A,,Unknown,70,2013-09-23 12:55:00
9:15 AM,48.2,42.8,82,30.16,-9999.0,East,5.8,-,N/A,,Clear,80,2013-09-23 13:15:00
9:35 AM,50.0,44.6,82,30.16,-9999.0,ENE,4.6,-,N/A,,Scattered Clouds,70,2013-09-23 13:35:00
9:55 AM,51.8,44.6,76,30.17,-9999.0,East,5.8,-,N/A,,Scattered Clouds,80,2013-09-23 13:55:00
10:15 AM,53.6,44.6,72,30.17,-9999.0,East,5.8,-,N/A,,Scattered Clouds,90,2013-09-23 14:15:00
10:35 AM,55.4,44.6,67,30.17,-9999.0,ESE,5.8,-,N/A,,Clear,110,2013-09-23 14:35:00
10:55 AM,57.2,44.6,63,30.17,-9999.0,ESE,8.1,-,N/A,,Clear,110,2013-09-23 14:55:00
11:15 AM,59.0,44.6,59,30.17,-9999.0,East,8.1,-,N/A,,Clear,100,2013-09-23 15:15:00
11:35 AM,59.0,44.6,59,30.17,-9999.0,SE,5.8,-,N/A,,Scattered Clouds,130,2013-09-23 15:35:00
11:55 AM,60.8,44.6,55,30.16,-9999.0,ESE,5.8,-,N/A,,Mostly Cloudy,120,2013-09-23 15:55:00
12:15 PM,60.8,44.6,55,30.16,-9999.0,East,5.8,-,N/A,,Mostly Cloudy,100,2013-09-23 16:15:00
12:35 PM,60.8,42.8,52,30.16,-9999.0,East,4.6,-,N/A,,Mostly Cloudy,90,2013-09-23 16:35:00
12:55 PM,60.8,42.8,52,30.16,-9999.0,SE,4.6,-,N/A,,Mostly Cloudy,140,2013-09-23 16:55:00
1:15 PM,60.8,42.8,52,30.16,-9999.0,ESE,4.6,-,N/A,,Overcast,110,2013-09-23 17:15:00
1:35 PM,62.6,42.8,48,30.16,-9999.0,Calm,Calm,-,N/A,,Overcast,0,2013-09-23 17:35:00
1:55 PM,62.6,42.8,48,30.16,-9999.0,ESE,5.8,-,N/A,,Mostly Cloudy,110,2013-09-23 17:55:00
2:15 PM,62.6,42.8,48,30.15,-9999.0,ESE,6.9,-,N/A,,Mostly Cloudy,110,2013-09-23 18:15:00
2:35 PM,64.4,42.8,45,30.15,-9999.0,East,6.9,-,N/A,,Mostly Cloudy,80,2013-09-23 18:35:00
2:55 PM,64.4,42.8,45,30.13,-9999.0,East,8.1,-,N/A,,Scattered Clouds,80,2013-09-23 18:55:00
3:15 PM,64.4,41.0,42,30.13,-9999.0,ENE,5.8,-,N/A,,Scattered Clouds,70,2013-09-23 19:15:00
3:35 PM,66.2,42.8,43,30.12,-9999.0,East,8.1,-,N/A,,Clear,100,2013-09-23 19:35:00
3:55 PM,66.2,41.0,40,30.12,-9999.0,East,6.9,-,N/A,,Clear,100,2013-09-23 19:55:00
4:15 PM,66.2,42.8,43,30.11,-9999.0,NE,11.5,19.6,N/A,,Clear,50,2013-09-23 20:15:00
4:35 PM,64.4,41.0,42,30.11,-9999.0,ESE,8.1,-,N/A,,Clear,110,2013-09-23 20:35:00
4:55 PM,64.4,41.0,42,30.10,-9999.0,East,9.2,-,N/A,,Clear,100,2013-09-23 20:55:00
5:15 PM,64.4,41.0,42,30.11,-9999.0,East,9.2,-,N/A,,Clear,100,2013-09-23 21:15:00
5:35 PM,64.4,42.8,45,30.10,-9999.0,East,6.9,-,N/A,,Clear,100,2013-09-23 21:35:00
5:55 PM,64.4,42.8,45,30.10,-9999.0,East,9.2,-,N/A,,Clear,80,2013-09-23 21:55:00
6:15 PM,64.4,42.8,45,30.10,-9999.0,East,6.9,-,N/A,,Clear,90,2013-09-23 22:15:00
6:35 PM,62.6,42.8,48,30.11,-9999.0,East,8.1,-,N/A,,Clear,90,2013-09-23 22:35:00
6:55 PM,60.8,42.8,52,30.10,-9999.0,East,4.6,-,N/A,,Clear,90,2013-09-23 22:55:00
7:15 PM,59.0,42.8,55,30.11,-9999.0,East,4.6,-,N/A,,Clear,80,2013-09-23 23:15:00
7:35 PM,55.4,42.8,63,30.10,-9999.0,East,5.8,-,N/A,,Clear,80,2013-09-23 23:35:00
7:55 PM,53.6,42.8,67,30.10,-9999.0,East,4.6,-,N/A,,Clear,90,2013-09-23 23:55:00
8:15 PM,51.8,42.8,71,30.11,-9999.0,East,4.6,-,N/A,,Clear,90,2013-09-24 00:15:00
8:35 PM,51.8,42.8,71,30.11,-9999.0,East,4.6,-,N/A,,Clear,90,2013-09-24 00:35:00
8:55 PM,51.8,42.8,71,30.12,-9999.0,East,3.5,-,N/A,,Clear,90,2013-09-24 00:55:00
9:15 PM,50.0,42.8,76,30.12,-9999.0,East,3.5,-,N/A,,Clear,90,2013-09-24 01:15:00
9:35 PM,50.0,42.8,76,30.12,-9999.0,Calm,Calm,-,N/A,,Clear,0,2013-09-24 01:35:00
9:55 PM,50.0,42.8,76,30.13,-9999.0,Calm,Calm,-,N/A,,Clear,0,2013-09-24 01:55:00
10:15 PM,48.2,42.8,82,30.13,-9999.0,East,3.5,-,N/A,,Clear,80,2013-09-24 02:15:00
10:35 PM,46.4,42.8,87,30.12,-9999.0,East,4.6,-,N/A,,Clear,90,2013-09-24 02:35:00
10:55 PM,48.2,42.8,82,30.12,-9999.0,East,5.8,-,N/A,,Clear,90,2013-09-24 02:55:00
11:15 PM,50.0,42.8,76,30.12,-9999.0,East,4.6,-,N/A,,Clear,100,2013-09-24 03:15:00
11:35 PM,50.0,42.8,76,30.13,-9999.0,East,4.6,-,N/A,,Clear,100,2013-09-24 03:35:00
11:55 PM,50.0,42.8,76,30.13,-9999.0,ESE,3.5,-,N/A,,Clear,110,2013-09-24 03:55:00